Terminal Aerodrome Forecast
Issued by NWS Atlanta, GA

Home | Current Version | Previous Version | Text Only | Print | Product List | Glossary On
Versions: 1 2 3 4 5 6 7 8 9 10 11 12 13 14 15 16
000
FTUS42 KFFC 221400 AAA
TAFCSG
TAF AMD
KCSG 221418Z 2214/2312 33005KT P6SM VCSH BKN040
      TEMPO 2214/2217 4SM -TSRA BKN030CB
     FM222200 34006KT P6SM FEW040 SCT250
     FM230000 03005KT P6SM SCT250
     FM230600 03004KT P6SM SCT050=

USA.gov is the U.S. government's official web portal to all federal, state and local government web resources and services.